Time;durP1;ratioP1;P1;durP2;ratioP2;P2;SDS_P1;SDS_P2;PMS_P1;PMS_P2;Temp;Humidity;BMP_temperature;BMP_pressure;BME280_temperature;BME280_humidity;BME280_pressure;Samples;Min_cycle;Max_cycle;Signal;HPM_P1;HPM_P2
2022/02/23 00:01:31;;;;;;;5.95;1.20;;;;;;;4.39;69.86;100862.19;4962193;28;20545;-44
2022/02/23 00:04:00;;;;;;;8.40;1.08;;;;;;;4.39;69.90;100861.34;4970092;28;20062;-53
2022/02/23 00:06:26;;;;;;;7.30;1.00;;;;;;;4.37;69.52;100862.16;4966275;28;20503;-46
2022/02/23 00:08:53;;;;;;;6.80;1.60;;;;;;;4.37;70.07;100859.59;4963719;28;21748;-49
2022/02/23 00:11:20;;;;;;;8.93;1.35;;;;;;;4.37;70.03;100858.72;4985668;28;20070;-50
2022/02/23 00:13:46;;;;;;;7.97;1.83;;;;;;;4.35;70.53;100861.22;4969653;28;20058;-46
2022/02/23 00:16:13;;;;;;;6.18;0.75;;;;;;;4.35;70.29;100861.22;4967253;28;20059;-47
2022/02/23 00:18:41;;;;;;;5.30;1.65;;;;;;;4.36;69.90;100852.72;4968124;28;20061;-48
2022/02/23 00:21:08;;;;;;;7.85;1.55;;;;;;;4.34;70.11;100854.38;4969071;28;20073;-48
2022/02/23 00:23:34;;;;;;;4.15;1.10;;;;;;;4.33;70.64;100854.31;4964604;28;20094;-47
2022/02/23 00:26:01;;;;;;;12.52;1.90;;;;;;;4.35;70.06;100853.53;4968743;28;20046;-45
2022/02/23 00:28:27;;;;;;;10.55;1.58;;;;;;;4.37;70.13;100864.75;4964928;28;20051;-45
2022/02/23 00:30:54;;;;;;;7.00;1.38;;;;;;;4.40;69.69;100847.69;4975041;28;20077;-49
2022/02/23 00:33:21;;;;;;;5.20;1.30;;;;;;;4.42;70.10;100853.75;4963382;28;20166;-49
2022/02/23 00:35:47;;;;;;;7.68;1.70;;;;;;;4.46;70.20;100858.19;4961633;28;20048;-49
2022/02/23 00:38:14;;;;;;;9.43;1.42;;;;;;;4.48;69.82;100848.84;4965943;28;20043;-48
2022/02/23 00:40:41;;;;;;;7.80;2.22;;;;;;;4.52;69.72;100854.97;4971234;28;20051;-50
2022/02/23 00:43:08;;;;;;;9.50;1.52;;;;;;;4.54;69.75;100848.19;4969010;28;20530;-51
2022/02/23 00:45:35;;;;;;;6.70;0.88;;;;;;;4.55;69.93;100848.22;4966144;28;20054;-50
2022/02/23 00:48:02;;;;;;;5.45;1.30;;;;;;;4.56;70.03;100857.66;4968153;28;20050;-49
2022/02/23 00:50:29;;;;;;;9.38;1.02;;;;;;;4.54;69.61;100846.50;4960327;28;20042;-49
2022/02/23 00:52:56;;;;;;;6.32;1.90;;;;;;;4.51;70.46;100843.81;4964699;28;20410;-47
2022/02/23 00:55:22;;;;;;;6.10;0.77;;;;;;;4.46;70.05;100846.22;4959521;28;20043;-48
2022/02/23 00:57:52;;;;;;;3.78;1.02;;;;;;;4.43;70.04;100851.22;4965425;28;20051;-45
2022/02/23 01:00:18;;;;;;;5.60;1.17;;;;;;;4.40;70.24;100847.69;4963898;28;20038;-49
2022/02/23 01:02:45;;;;;;;6.03;1.30;;;;;;;4.37;69.97;100838.19;4959064;28;20519;-49
2022/02/23 01:05:11;;;;;;;6.25;1.00;;;;;;;4.35;70.55;100840.72;4959540;28;20108;-50
2022/02/23 01:07:38;;;;;;;6.78;1.55;;;;;;;4.34;70.44;100845.78;4962805;28;20054;-46
2022/02/23 01:10:08;;;;;;;6.85;1.58;;;;;;;4.31;71.12;100841.41;4962020;28;20138;-52
2022/02/23 01:12:36;;;;;;;7.65;0.82;;;;;;;4.29;71.03;100843.03;4959672;28;20047;-49
2022/02/23 01:15:04;;;;;;;7.57;1.08;;;;;;;4.27;71.09;100839.56;4959534;28;20098;-48
2022/02/23 01:17:32;;;;;;;3.35;1.05;;;;;;;4.23;70.95;100837.72;4956100;28;20058;-48
2022/02/23 01:20:01;;;;;;;6.47;1.05;;;;;;;4.21;70.58;100844.47;4959331;28;20050;-48
2022/02/23 01:22:30;;;;;;;7.00;1.40;;;;;;;4.18;70.84;100841.78;4954805;28;20617;-49
2022/02/23 01:25:00;;;;;;;4.55;0.98;;;;;;;4.15;70.50;100836.56;4960874;28;20451;-54
2022/02/23 01:27:29;;;;;;;5.45;1.52;;;;;;;4.10;71.31;100847.53;4957244;28;20062;-53
2022/02/23 01:29:58;;;;;;;2.85;1.33;;;;;;;4.07;71.41;100839.72;4965129;28;20047;-47
2022/02/23 01:32:26;;;;;;;4.72;1.27;;;;;;;4.04;71.33;100841.28;4961919;28;20054;-47
2022/02/23 01:34:54;;;;;;;11.43;1.55;;;;;;;3.96;71.56;100843.56;4955814;28;20506;-46
2022/02/23 01:37:22;;;;;;;8.32;1.42;;;;;;;3.94;71.87;100840.06;4963560;28;20055;-48
2022/02/23 01:39:49;;;;;;;7.88;1.13;;;;;;;3.87;71.45;100836.41;4958939;28;20047;-52
2022/02/23 01:42:16;;;;;;;5.10;1.08;;;;;;;3.85;72.30;100838.91;4958715;28;20093;-53
2022/02/23 01:44:43;;;;;;;6.70;1.58;;;;;;;3.81;71.25;100839.63;4941399;28;20098;-49
2022/02/23 01:47:10;;;;;;;7.22;1.33;;;;;;;3.79;72.25;100841.25;4942799;28;20098;-46
2022/02/23 01:49:36;;;;;;;6.55;1.13;;;;;;;3.77;71.64;100842.88;4940728;28;20047;-50
2022/02/23 01:52:07;;;;;;;7.32;2.33;;;;;;;3.74;71.77;100842.75;4940246;28;20063;-45
2022/02/23 01:54:33;;;;;;;7.55;1.15;;;;;;;3.71;72.51;100832.38;4946247;28;20051;-52
2022/02/23 01:57:00;;;;;;;10.65;1.10;;;;;;;3.68;72.35;100838.28;4936209;28;20047;-53
2022/02/23 01:59:26;;;;;;;11.52;1.20;;;;;;;3.68;71.99;100842.53;4943233;28;20059;-49
2022/02/23 02:01:53;;;;;;;8.00;1.55;;;;;;;3.68;72.51;100847.66;4939810;28;20696;-47
2022/02/23 02:04:21;;;;;;;4.95;1.42;;;;;;;3.66;72.51;100836.47;4941693;28;20062;-50
2022/02/23 02:06:49;;;;;;;7.22;1.30;;;;;;;3.63;72.28;100839.78;4940007;28;20062;-46
2022/02/23 02:09:18;;;;;;;8.07;1.33;;;;;;;3.63;72.64;100839.78;4942529;28;20055;-49
2022/02/23 02:11:44;;;;;;;9.13;2.00;;;;;;;3.62;72.61;100847.41;4942352;28;20059;-46
2022/02/23 02:14:11;;;;;;;8.15;1.50;;;;;;;3.62;72.55;100840.63;4942371;28;20514;-48
2022/02/23 02:16:38;;;;;;;3.03;1.30;;;;;;;3.59;72.83;100841.34;4942024;28;20047;-48
2022/02/23 02:19:06;;;;;;;7.43;1.50;;;;;;;3.58;72.96;100847.28;4942228;28;20063;-47
2022/02/23 02:21:57;;;;;;;8.02;1.00;;;;;;;3.52;73.32;100847.06;4945709;28;20783;-46
2022/02/23 02:24:28;;;;;;;6.43;0.93;;;;;;;3.52;73.12;100841.94;4938090;28;20042;-48
2022/02/23 02:26:56;;;;;;;8.45;0.85;;;;;;;3.51;72.89;100845.31;4930515;28;20066;-48
2022/02/23 02:29:23;;;;;;;4.47;0.88;;;;;;;3.46;72.69;100842.59;4929828;28;20059;-47
2022/02/23 02:31:51;;;;;;;4.13;0.85;;;;;;;3.47;72.17;100840.88;4931299;28;20047;-50
2022/02/23 02:34:19;;;;;;;6.03;0.88;;;;;;;3.43;72.60;100847.56;4932272;28;20050;-50
2022/02/23 02:36:48;;;;;;;6.03;1.15;;;;;;;3.41;72.70;100848.34;4937191;28;20059;-51
2022/02/23 02:39:17;;;;;;;4.18;0.68;;;;;;;3.38;72.97;100850.75;4936266;28;20056;-48
2022/02/23 02:41:44;;;;;;;7.25;1.98;;;;;;;3.36;72.89;100849.81;4933024;28;20056;-45
2022/02/23 02:44:11;;;;;;;6.97;1.65;;;;;;;3.34;73.10;100848.06;4954650;28;20102;-45
2022/02/23 02:46:38;;;;;;;8.45;1.00;;;;;;;3.30;73.07;100840.19;4936757;28;20051;-48
2022/02/23 02:49:05;;;;;;;3.28;0.95;;;;;;;3.29;72.64;100841.91;4929366;28;20082;-49
2022/02/23 02:51:32;;;;;;;7.45;1.17;;;;;;;3.25;73.18;100837.47;4945177;28;20059;-48
2022/02/23 02:53:59;;;;;;;4.68;1.20;;;;;;;3.25;73.48;100852.84;4932141;28;20582;-46
2022/02/23 02:56:25;;;;;;;12.40;0.80;;;;;;;3.26;73.06;100834.09;4931772;28;20312;-48
2022/02/23 02:58:52;;;;;;;4.45;0.80;;;;;;;3.28;73.26;100842.69;4932109;28;20491;-50
2022/02/23 03:01:25;;;;;;;3.42;0.82;;;;;;;3.29;73.71;100834.22;4932427;28;20055;-46
2022/02/23 03:03:53;;;;;;;3.42;1.00;;;;;;;3.32;73.13;100838.59;4931725;28;20050;-48
2022/02/23 03:06:20;;;;;;;7.72;0.65;;;;;;;3.31;73.25;100836.84;4933095;28;20062;-47
2022/02/23 03:08:49;;;;;;;8.18;1.65;;;;;;;3.30;72.53;100838.53;4948316;28;20115;-45
2022/02/23 03:11:16;;;;;;;2.05;0.55;;;;;;;3.29;73.24;100841.03;4928143;28;20059;-49
2022/02/23 03:13:42;;;;;;;6.43;0.88;;;;;;;3.28;73.34;100842.69;4935057;28;20055;-48
2022/02/23 03:16:11;;;;;;;3.38;0.77;;;;;;;3.26;73.28;100848.56;4929895;28;20058;-50
2022/02/23 03:18:38;;;;;;;9.45;1.30;;;;;;;3.21;72.94;100836.47;4929478;28;22066;-48
2022/02/23 03:21:06;;;;;;;6.03;1.15;;;;;;;3.21;73.33;100830.50;4931475;28;20063;-48
2022/02/23 03:23:33;;;;;;;10.57;0.95;;;;;;;3.19;72.66;100827.88;4927430;28;20482;-47
2022/02/23 03:26:00;;;;;;;7.80;0.88;;;;;;;3.17;73.52;100820.91;4949979;28;20760;-44
2022/02/23 03:28:27;;;;;;;4.45;1.23;;;;;;;3.16;72.55;100811.50;4937984;28;20066;-47
2022/02/23 03:30:54;;;;;;;3.97;0.82;;;;;;;3.17;73.67;100813.22;4934159;28;20109;-45
2022/02/23 03:33:20;;;;;;;6.43;0.90;;;;;;;3.18;73.31;100820.13;4933515;28;20055;-50
2022/02/23 03:35:48;;;;;;;4.85;0.90;;;;;;;3.19;73.37;100817.63;4933755;28;20051;-48
2022/02/23 03:38:15;;;;;;;6.13;0.95;;;;;;;3.19;73.67;100814.19;4930700;28;20102;-47
2022/02/23 03:40:42;;;;;;;8.30;1.02;;;;;;;3.18;73.53;100815.84;4931622;28;20069;-49
2022/02/23 03:43:10;;;;;;;4.05;0.55;;;;;;;3.18;73.31;100825.25;4939690;28;20106;-49
2022/02/23 03:45:37;;;;;;;5.88;1.00;;;;;;;3.16;73.47;100816.63;4931504;28;20118;-47
2022/02/23 03:48:04;;;;;;;8.25;1.02;;;;;;;3.14;73.45;100806.31;4932126;28;24421;-47
2022/02/23 03:50:31;;;;;;;7.35;1.20;;;;;;;3.13;73.07;100807.13;4932718;28;20052;-51
2022/02/23 03:52:58;;;;;;;9.30;0.90;;;;;;;3.17;73.63;100820.91;4934383;28;20051;-47
2022/02/23 03:55:24;;;;;;;7.70;0.88;;;;;;;3.20;73.02;100823.59;4934992;28;20126;-46
2022/02/23 03:57:51;;;;;;;3.67;0.80;;;;;;;3.23;73.14;100813.50;4936989;28;20632;-46
2022/02/23 04:00:18;;;;;;;4.38;0.60;;;;;;;3.27;72.62;100810.22;4952150;28;20086;-50
2022/02/23 04:02:44;;;;;;;4.53;0.57;;;;;;;3.31;73.33;100809.53;4953508;28;20683;-46
2022/02/23 04:05:11;;;;;;;6.10;0.75;;;;;;;3.33;73.12;100814.72;4952235;28;20054;-49
2022/02/23 04:07:38;;;;;;;9.20;1.00;;;;;;;3.33;73.67;100810.50;4945899;28;20078;-50
2022/02/23 04:10:06;;;;;;;5.50;0.47;;;;;;;3.34;73.52;100803.66;4960012;28;20063;-49
2022/02/23 04:12:33;;;;;;;2.50;0.75;;;;;;;3.30;72.87;100800.13;4956095;28;21765;-51
2022/02/23 04:14:59;;;;;;;10.23;1.08;;;;;;;3.28;73.67;100806.00;4951377;28;20069;-53
2022/02/23 04:17:26;;;;;;;3.58;1.00;;;;;;;3.23;72.65;100803.25;4950994;28;20055;-51
2022/02/23 04:19:53;;;;;;;4.93;1.08;;;;;;;3.22;73.45;100797.25;4952637;28;21705;-51
2022/02/23 04:22:20;;;;;;;4.53;0.70;;;;;;;3.21;73.29;100799.78;4951563;28;20066;-46
2022/02/23 04:24:46;;;;;;;8.57;1.38;;;;;;;3.17;73.66;100797.88;4952888;28;20205;-49
2022/02/23 04:27:13;;;;;;;3.90;0.70;;;;;;;3.14;73.81;100792.66;4956137;28;20058;-50
2022/02/23 04:29:39;;;;;;;11.85;0.88;;;;;;;3.14;73.56;100790.09;4959772;28;20058;-50
2022/02/23 04:32:06;;;;;;;4.40;1.10;;;;;;;3.12;73.11;100794.25;4953492;28;20055;-51
2022/02/23 04:34:33;;;;;;;7.43;0.85;;;;;;;3.13;73.63;100793.44;4963670;28;20125;-52
2022/02/23 04:36:59;;;;;;;4.40;0.73;;;;;;;3.12;73.97;100794.25;4960784;28;20126;-49
2022/02/23 04:39:27;;;;;;;8.68;1.00;;;;;;;3.14;73.95;100795.22;4965229;28;20062;-47
2022/02/23 04:41:54;;;;;;;4.75;0.98;;;;;;;3.15;73.25;100799.50;4961035;28;20051;-47
2022/02/23 04:44:21;;;;;;;4.88;0.70;;;;;;;3.20;74.16;100792.88;4963865;28;20058;-50
2022/02/23 04:46:47;;;;;;;5.55;0.70;;;;;;;3.24;74.00;100794.75;4959903;28;20588;-51
2022/02/23 04:49:14;;;;;;;2.92;0.75;;;;;;;3.25;73.49;100786.28;4957410;28;20585;-47
2022/02/23 04:51:41;;;;;;;8.77;0.80;;;;;;;3.28;73.79;100780.41;4943566;28;20927;-50
2022/02/23 04:54:08;;;;;;;6.43;1.45;;;;;;;3.29;73.90;100783.00;4939847;28;20055;-51
2022/02/23 04:56:34;;;;;;;8.90;1.13;;;;;;;3.29;73.40;100767.66;4959157;28;20059;-47
2022/02/23 04:59:01;;;;;;;4.95;0.85;;;;;;;3.29;73.41;100772.78;4943030;28;20405;-53
2022/02/23 05:01:28;;;;;;;8.65;0.93;;;;;;;3.33;73.61;100773.75;4942163;28;20118;-49
2022/02/23 05:03:57;;;;;;;11.63;0.93;;;;;;;3.34;73.89;100765.25;4939230;28;20063;-46
2022/02/23 05:06:24;;;;;;;10.02;1.27;;;;;;;3.35;72.91;100767.03;4937066;28;20055;-48
2022/02/23 05:08:50;;;;;;;8.48;1.25;;;;;;;3.36;73.46;100760.19;4937102;28;20055;-48
2022/02/23 05:11:17;;;;;;;14.98;1.48;;;;;;;3.39;73.56;100761.19;4943428;28;20055;-47
2022/02/23 05:13:43;;;;;;;12.55;1.60;;;;;;;3.43;74.38;100757.94;4938831;28;20043;-48
2022/02/23 05:16:10;;;;;;;6.28;1.05;;;;;;;3.46;73.86;100764.84;4945936;28;20044;-52
2022/02/23 05:18:37;;;;;;;6.65;1.23;;;;;;;3.49;73.50;100775.22;4941594;28;20135;-46
2022/02/23 05:21:03;;;;;;;4.90;1.05;;;;;;;3.50;73.47;100776.97;4959682;28;20061;-51
2022/02/23 05:23:31;;;;;;;5.68;0.93;;;;;;;3.52;73.59;100759.09;4962402;28;20070;-48
2022/02/23 05:25:59;;;;;;;6.13;1.25;;;;;;;3.50;73.31;100759.03;4960647;28;20055;-51
2022/02/23 05:28:26;;;;;;;4.72;0.85;;;;;;;3.51;74.12;100762.47;4964838;28;20046;-49
2022/02/23 05:30:53;;;;;;;14.98;1.30;;;;;;;3.51;73.80;100754.78;4962451;28;20440;-48
2022/02/23 05:33:20;;;;;;;9.27;1.13;;;;;;;3.52;74.49;100757.41;4958463;28;20454;-44
2022/02/23 05:35:46;;;;;;;6.07;0.82;;;;;;;3.56;73.49;100756.72;4958872;28;20102;-49
2022/02/23 05:38:13;;;;;;;9.25;1.23;;;;;;;3.58;74.04;100762.75;4960249;28;20047;-48
2022/02/23 05:40:40;;;;;;;10.80;1.67;;;;;;;3.59;73.38;100756.81;4960120;28;20059;-50
2022/02/23 05:43:07;;;;;;;5.90;0.60;;;;;;;3.60;73.73;100748.31;4955200;28;20055;-46
2022/02/23 05:45:34;;;;;;;7.15;1.13;;;;;;;3.63;74.11;100749.25;4962333;28;20097;-50
2022/02/23 05:48:00;;;;;;;11.95;2.38;;;;;;;3.64;73.82;100754.41;4952351;28;20046;-47
2022/02/23 05:50:27;;;;;;;7.40;0.68;;;;;;;3.65;74.35;100745.91;4959980;28;20055;-46
2022/02/23 05:52:57;;;;;;;9.43;1.05;;;;;;;3.67;73.71;100743.41;4958173;28;20050;-49
2022/02/23 05:55:24;;;;;;;6.63;2.78;;;;;;;3.67;74.14;100739.16;4962131;28;20058;-52
2022/02/23 05:57:50;;;;;;;7.15;1.50;;;;;;;3.66;73.55;100742.56;4955811;28;20483;-47
2022/02/23 06:00:17;;;;;;;8.90;1.42;;;;;;;3.64;73.85;100740.75;4962702;28;20626;-48
2022/02/23 06:02:44;;;;;;;4.82;1.02;;;;;;;3.63;74.20;100739.00;4958551;28;20054;-48
2022/02/23 06:05:13;;;;;;;7.50;1.20;;;;;;;3.60;73.73;100732.94;4958937;28;20055;-46
2022/02/23 06:07:40;;;;;;;12.68;1.30;;;;;;;3.63;73.68;100736.44;4959517;28;20073;-47
2022/02/23 06:10:07;;;;;;;7.00;0.98;;;;;;;3.62;74.55;100734.69;4958355;28;20711;-55
2022/02/23 06:12:33;;;;;;;6.30;0.77;;;;;;;3.62;74.61;100742.38;4962428;28;20128;-51
2022/02/23 06:15:00;;;;;;;12.00;1.42;;;;;;;3.64;74.70;100735.63;4961289;28;20050;-48
2022/02/23 06:17:28;;;;;;;7.32;1.67;;;;;;;3.65;74.68;100729.69;4957300;28;20046;-48
2022/02/23 06:19:55;;;;;;;9.35;1.27;;;;;;;3.66;74.37;100732.31;4958133;28;20102;-49
2022/02/23 06:22:21;;;;;;;6.32;0.88;;;;;;;3.66;75.05;100731.44;4961426;28;21117;-46
2022/02/23 06:24:48;;;;;;;5.13;1.73;;;;;;;3.68;75.39;100733.22;4957042;28;20059;-51
2022/02/23 06:27:17;;;;;;;10.20;1.10;;;;;;;3.71;74.52;100729.88;4957180;28;20054;-47
2022/02/23 06:29:44;;;;;;;6.63;1.23;;;;;;;3.74;75.32;100730.00;4960035;28;20658;-48
2022/02/23 06:32:11;;;;;;;12.07;1.80;;;;;;;3.77;74.67;100719.88;4963096;28;20069;-46
2022/02/23 06:34:38;;;;;;;9.18;1.42;;;;;;;3.80;74.67;100719.09;4961353;28;20120;-47
2022/02/23 06:37:06;;;;;;;8.90;1.45;;;;;;;3.84;74.42;100721.84;4958951;28;20101;-51
2022/02/23 06:39:37;;;;;;;14.25;1.35;;;;;;;3.88;74.17;100714.28;4943569;28;20061;-49
2022/02/23 06:42:05;;;;;;;7.15;1.42;;;;;;;3.91;74.13;100711.78;4957136;28;20051;-50
2022/02/23 06:44:32;;;;;;;6.93;1.95;;;;;;;3.93;74.81;100716.19;4963269;28;20069;-46
2022/02/23 06:47:00;;;;;;;12.20;1.77;;;;;;;3.96;75.03;100710.28;4962536;28;20043;-43
2022/02/23 06:49:29;;;;;;;13.02;1.77;;;;;;;4.00;74.77;100707.00;4965516;28;20050;-46
2022/02/23 06:51:58;;;;;;;9.13;1.40;;;;;;;4.02;75.05;100700.22;4962816;28;20054;-46
2022/02/23 06:54:29;;;;;;;9.88;2.00;;;;;;;4.04;75.11;100706.28;4961887;28;20512;-51
2022/02/23 06:56:55;;;;;;;9.05;2.20;;;;;;;4.03;75.41;100704.56;4958935;28;20059;-48
2022/02/23 06:59:22;;;;;;;7.80;2.20;;;;;;;4.05;75.18;100700.34;4962014;28;20043;-45
2022/02/23 07:01:49;;;;;;;12.43;1.23;;;;;;;4.08;75.15;100697.00;4966474;28;20447;-50
2022/02/23 07:04:15;;;;;;;9.30;2.10;;;;;;;4.13;74.95;100697.16;4964241;28;20054;-46
2022/02/23 07:06:43;;;;;;;17.05;1.80;;;;;;;4.16;75.37;100710.09;4965444;28;20047;-47
2022/02/23 07:09:10;;;;;;;12.45;1.52;;;;;;;4.21;74.85;100706.00;4963402;28;20439;-45
2022/02/23 07:11:37;;;;;;;27.92;6.65;;;;;;;4.25;74.89;100697.56;4977224;28;20054;-50
2022/02/23 07:14:05;;;;;;;9.75;1.65;;;;;;;4.28;74.95;100705.38;4967831;28;20135;-47
2022/02/23 07:16:33;;;;;;;13.43;1.65;;;;;;;4.35;75.21;100703.88;4978316;28;20497;-48
2022/02/23 07:19:00;;;;;;;11.27;1.45;;;;;;;4.38;74.68;100698.88;4971201;28;20082;-45
2022/02/23 07:21:27;;;;;;;8.60;1.52;;;;;;;4.42;75.00;100697.28;4972703;28;20051;-46
2022/02/23 07:23:54;;;;;;;12.60;1.58;;;;;;;4.46;74.48;100711.97;4971023;28;20047;-48
2022/02/23 07:26:20;;;;;;;6.78;1.15;;;;;;;4.50;74.30;100703.53;4970340;28;20055;-49
2022/02/23 07:28:47;;;;;;;9.45;1.50;;;;;;;4.54;75.03;100707.94;4967291;28;20050;-50
2022/02/23 07:31:17;;;;;;;10.95;1.52;;;;;;;4.58;74.58;100704.66;4970904;28;20106;-47
2022/02/23 07:33:45;;;;;;;7.78;1.70;;;;;;;4.57;74.76;100702.91;4973954;28;20054;-50
2022/02/23 07:36:12;;;;;;;8.88;1.60;;;;;;;4.60;74.30;100703.00;4967110;28;20046;-47
2022/02/23 07:38:40;;;;;;;8.85;1.40;;;;;;;4.63;74.53;100690.28;4971823;28;20050;-53
2022/02/23 07:41:10;;;;;;;7.60;1.95;;;;;;;4.66;73.99;100688.66;4968160;28;20062;-47
2022/02/23 07:43:58;;;;;;;6.10;1.00;;;;;;;4.62;74.08;100687.66;4973569;28;20133;-52
2022/02/23 07:46:25;;;;;;;9.15;1.02;;;;;;;4.68;73.97;100702.38;4969851;28;20146;-47
2022/02/23 07:48:58;;;;;;;5.05;1.70;;;;;;;4.72;74.17;100691.38;4974162;28;20054;-48
2022/02/23 07:51:25;;;;;;;10.98;3.13;;;;;;;4.79;73.81;100675.34;4969770;28;20057;-47
2022/02/23 07:53:53;;;;;;;8.13;2.05;;;;;;;4.88;73.51;100675.66;4971297;28;20054;-48
2022/02/23 07:56:21;;;;;;;8.15;1.17;;;;;;;4.98;73.22;100675.94;4974272;28;20046;-54
2022/02/23 07:58:50;;;;;;;11.90;2.65;;;;;;;5.09;73.63;100679.69;4966964;28;20173;-51
2022/02/23 08:01:35;;;;;;;7.03;2.47;;;;;;;5.26;73.88;100681.88;4964116;28;20640;-48
2022/02/23 08:04:02;;;;;;;9.95;2.13;;;;;;;5.42;72.96;100672.94;4962230;28;20051;-48
2022/02/23 08:06:29;;;;;;;10.40;1.42;;;;;;;5.56;72.80;100675.00;4973257;28;20045;-47
2022/02/23 08:08:57;;;;;;;14.57;2.22;;;;;;;5.64;72.27;100674.41;4962414;28;20055;-46
2022/02/23 08:11:25;;;;;;;11.73;1.50;;;;;;;5.72;72.29;100677.19;4965662;28;20447;-46
2022/02/23 08:13:58;;;;;;;12.68;1.90;;;;;;;5.80;73.02;100669.66;4962433;28;20510;-47
2022/02/23 08:22:07;;;;;;;10.52;1.25;;;;;;;5.84;72.55;100681.78;4966202;28;20410;-48
2022/02/23 08:24:37;;;;;;;14.25;1.85;;;;;;;5.84;72.85;100676.63;4970086;28;20482;-47
2022/02/23 08:27:07;;;;;;;11.82;1.52;;;;;;;5.92;72.37;100670.00;4951733;28;20055;-49
2022/02/23 08:29:34;;;;;;;8.10;1.17;;;;;;;6.08;71.94;100665.28;4954608;28;20044;-51
2022/02/23 08:32:05;;;;;;;9.75;1.40;;;;;;;6.24;72.34;100665.66;4962279;28;20051;-48
2022/02/23 08:34:31;;;;;;;6.93;0.80;;;;;;;6.37;72.71;100654.88;4955137;28;20047;-49
2022/02/23 08:36:58;;;;;;;6.00;1.05;;;;;;;6.49;72.06;100653.41;4955346;28;20047;-47
2022/02/23 08:39:25;;;;;;;6.82;1.10;;;;;;;6.63;71.63;100649.47;4957028;28;20411;-50
2022/02/23 08:41:54;;;;;;;11.32;0.95;;;;;;;6.78;71.25;100650.63;4956026;28;20459;-48
2022/02/23 08:44:21;;;;;;;8.85;1.55;;;;;;;7.35;70.89;100653.56;4953738;28;20058;-48
2022/02/23 08:46:48;;;;;;;8.82;0.70;;;;;;;7.86;70.97;100653.66;4959993;28;20047;-46
2022/02/23 08:49:15;;;;;;;6.30;1.60;;;;;;;8.49;69.54;100648.69;4960718;28;20110;-50
2022/02/23 08:51:46;;;;;;;6.15;0.77;;;;;;;9.39;69.06;100650.78;4954702;28;20134;-49
2022/02/23 08:54:15;;;;;;;4.20;0.52;;;;;;;9.84;66.67;100640.94;4951983;28;20047;-45
2022/02/23 08:56:42;;;;;;;6.72;0.98;;;;;;;10.05;64.72;100647.16;4957774;28;20214;-48
2022/02/23 08:59:09;;;;;;;7.53;1.02;;;;;;;9.94;64.73;100654.84;4949607;28;20082;-47
2022/02/23 09:01:35;;;;;;;10.60;1.13;;;;;;;9.66;64.49;100644.19;4950425;28;20039;-49
2022/02/23 09:04:03;;;;;;;4.10;1.02;;;;;;;9.27;64.51;100646.34;4957567;28;20087;-49
2022/02/23 09:06:32;;;;;;;6.43;1.15;;;;;;;9.02;65.24;100646.03;4963995;28;20047;-52
2022/02/23 09:09:02;;;;;;;12.10;1.98;;;;;;;8.74;65.45;100636.19;4957242;28;20046;-49
2022/02/23 09:11:29;;;;;;;12.48;1.98;;;;;;;8.47;65.76;100636.59;4963089;28;20047;-47
2022/02/23 09:13:57;;;;;;;6.80;1.08;;;;;;;8.31;66.58;100633.78;4958563;28;20099;-49
2022/02/23 09:16:29;;;;;;;9.15;1.52;;;;;;;8.66;67.05;100622.31;4953641;28;20072;-51
2022/02/23 09:18:55;;;;;;;5.65;1.02;;;;;;;9.70;66.19;100625.28;4956629;28;20103;-51
2022/02/23 09:21:22;;;;;;;5.72;1.15;;;;;;;10.85;64.37;100614.09;4950267;28;20545;-46
2022/02/23 09:23:49;;;;;;;7.47;1.35;;;;;;;11.96;62.97;100617.91;4947816;28;20057;-47
2022/02/23 09:26:18;;;;;;;4.53;0.63;;;;;;;12.77;58.18;100614.38;4951444;28;20684;-48
2022/02/23 09:28:44;;;;;;;4.55;1.10;;;;;;;13.62;56.61;100611.41;4952686;28;20040;-50
2022/02/23 09:31:12;;;;;;;4.22;0.82;;;;;;;14.37;55.61;100605.63;4953241;28;20094;-47
2022/02/23 09:33:40;;;;;;;5.13;1.23;;;;;;;14.99;54.78;100603.25;4953340;28;20059;-51
2022/02/23 09:36:12;;;;;;;4.35;0.88;;;;;;;15.74;53.45;100587.41;4956581;28;20507;-51
2022/02/23 09:38:39;;;;;;;2.88;0.50;;;;;;;16.41;51.99;100591.56;4952669;28;20051;-53
2022/02/23 09:41:09;;;;;;;3.55;0.45;;;;;;;16.91;50.11;100587.13;4947038;28;20047;-49
2022/02/23 09:43:38;;;;;;;5.80;0.88;;;;;;;17.33;48.12;100586.28;4958618;28;20043;-53
2022/02/23 09:46:08;;;;;;;5.93;0.73;;;;;;;17.72;48.14;100573.16;4954272;28;20059;-52
2022/02/23 09:48:35;;;;;;;1.80;0.40;;;;;;;17.65;45.37;100570.72;4963959;28;20043;-55
2022/02/23 09:51:04;;;;;;;4.30;0.73;;;;;;;17.96;45.90;100570.81;4948527;28;20054;-50
2022/02/23 09:53:31;;;;;;;2.30;0.70;;;;;;;18.39;44.90;100573.25;4966434;28;20043;-50
2022/02/23 09:55:59;;;;;;;2.90;1.08;;;;;;;18.70;43.78;100566.28;4950563;28;20475;-47
2022/02/23 09:58:27;;;;;;;6.05;0.40;;;;;;;19.01;43.45;100565.41;4959333;28;20055;-51
2022/02/23 10:01:02;;;;;;;3.70;0.65;;;;;;;19.07;42.14;100569.63;4951492;28;20054;-54
2022/02/23 10:03:29;;;;;;;3.25;0.68;;;;;;;19.44;42.67;100563.25;4950226;28;20051;-54
2022/02/23 10:05:55;;;;;;;1.45;0.70;;;;;;;19.52;42.07;100550.75;4962737;28;20039;-57
2022/02/23 10:08:32;;;;;;;3.88;1.40;;;;;;;19.50;39.44;100552.56;4948449;28;20154;-51
2022/02/23 10:11:03;;;;;;;5.07;1.02;;;;;;;19.70;40.86;100556.31;4969189;28;20051;-49
2022/02/23 10:13:30;;;;;;;4.78;1.35;;;;;;;19.73;41.22;100547.47;4952445;28;20057;-53
2022/02/23 10:15:58;;;;;;;3.03;0.47;;;;;;;19.98;40.59;100552.75;4953286;28;20122;-49
2022/02/23 10:18:46;;;;;;;2.92;0.40;;;;;;;19.87;39.81;100528.59;4957032;28;20063;-54
2022/02/23 10:21:17;;;;;;;2.40;0.60;;;;;;;19.81;39.86;100523.53;4948835;28;20555;-51
2022/02/23 10:23:44;;;;;;;1.77;1.23;;;;;;;20.01;39.49;100526.41;4953917;28;20444;-53
2022/02/23 10:26:12;;;;;;;2.38;0.75;;;;;;;19.53;38.81;100517.47;4950709;28;20138;-50
2022/02/23 10:28:40;;;;;;;5.35;2.03;;;;;;;19.76;40.25;100521.94;4952379;28;20668;-56
2022/02/23 10:31:09;;;;;;;2.78;1.25;;;;;;;19.99;39.97;100506.31;4948202;28;20066;-55
2022/02/23 10:33:41;;;;;;;3.42;1.02;;;;;;;20.25;39.94;100508.03;4959616;28;20396;-52
2022/02/23 10:36:33;;;;;;;3.03;1.38;;;;;;;19.77;38.04;100501.78;4968397;28;20043;-56
2022/02/23 10:39:09;;;;;;;5.35;1.13;;;;;;;19.78;39.92;100504.34;4965635;28;20055;-51
2022/02/23 10:41:42;;;;;;;6.68;0.73;;;;;;;19.69;39.61;100499.38;4978025;28;20047;-50
2022/02/23 10:44:09;;;;;;;2.70;0.57;;;;;;;19.48;39.59;100501.84;4962678;28;20468;-51
2022/02/23 10:46:42;;;;;;;3.08;1.02;;;;;;;19.33;39.77;100492.69;4964243;28;20537;-53
2022/02/23 10:49:09;;;;;;;6.07;1.70;;;;;;;19.42;40.73;100491.50;4970450;28;20097;-55
2022/02/23 10:51:38;;;;;;;2.78;0.65;;;;;;;19.74;40.45;100489.59;4966507;28;20051;-54
2022/02/23 10:54:08;;;;;;;4.93;1.33;;;;;;;19.93;39.89;100486.34;4973571;28;20469;-50
2022/02/23 10:56:37;;;;;;;1.33;0.57;;;;;;;19.76;39.03;100490.41;4967559;28;20055;-50
2022/02/23 10:59:15;;;;;;;3.17;0.75;;;;;;;19.18;39.47;100478.28;4964509;28;20131;-54
2022/02/23 11:01:44;;;;;;;4.68;0.52;;;;;;;18.37;40.21;100491.13;4965365;28;20131;-56
2022/02/23 11:04:11;;;;;;;2.13;0.80;;;;;;;17.55;41.04;100470.56;4969955;28;20050;-53
2022/02/23 11:06:39;;;;;;;2.92;0.47;;;;;;;16.87;42.34;100476.47;4961968;28;20046;-48
2022/02/23 11:09:08;;;;;;;3.25;0.60;;;;;;;16.21;43.66;100470.84;4977214;28;20047;-52
2022/02/23 11:11:36;;;;;;;8.13;0.70;;;;;;;15.71;44.55;100475.22;4970200;28;20514;-54
2022/02/23 11:14:07;;;;;;;2.25;0.32;;;;;;;15.04;45.52;100458.00;4972865;28;20047;-50
2022/02/23 11:16:34;;;;;;;3.08;0.70;;;;;;;14.39;46.64;100463.13;4971104;28;20061;-55
2022/02/23 11:19:06;;;;;;;8.20;0.93;;;;;;;13.86;47.32;100458.50;4969150;28;21585;-53
2022/02/23 11:21:36;;;;;;;4.03;0.88;;;;;;;13.58;47.98;100458.75;4971608;28;20069;-53
2022/02/23 11:24:07;;;;;;;1.52;0.55;;;;;;;13.25;49.53;100439.91;4960302;28;20089;-51
2022/02/23 11:26:36;;;;;;;3.83;0.93;;;;;;;12.95;49.03;100439.25;4973653;28;20051;-52
2022/02/23 11:29:32;;;;;;;3.85;1.05;;;;;;;12.71;50.43;100441.97;4959821;28;20495;-52
2022/02/23 11:32:01;;;;;;;2.67;0.40;;;;;;;12.57;51.35;100429.03;4952532;28;20047;-52
2022/02/23 11:34:28;;;;;;;4.55;1.13;;;;;;;12.29;52.60;100423.97;4968788;28;20093;-52
2022/02/23 11:36:55;;;;;;;1.80;0.60;;;;;;;12.14;51.57;100424.03;4949025;28;20373;-50
2022/02/23 11:39:27;;;;;;;4.18;0.68;;;;;;;11.98;53.20;100426.63;4957621;28;20129;-55
2022/02/23 11:41:56;;;;;;;2.47;1.00;;;;;;;11.89;52.47;100426.69;4948400;28;20047;-49